Terminal Aerodrome Forecast
Issued by NWS

Home | Current Version | Previous Version | Text Only | Print | Product List | Glossary On
Versions: 1 2 3 4 5 6 7 8 9 10 11 12 13 14 15 16 17 18
000
FTUS43 KOAX 061127
TAFBFF
TAF
KBFF 061127Z 0612/0712 36010KT 5SM -RA BR SCT010 OVC025
      TEMPO 0612/0616 2SM -RA BR OVC010
     FM061600 09010KT 4SM -RA BR BKN015
     FM061900 12008KT P6SM -SHRA OVC050
     FM070200 13007KT P6SM BKN050=

USA.gov is the U.S. government's official web portal to all federal, state and local government web resources and services.